sensor_id;sensor_type;location;lat;lon;timestamp;pressure;altitude;pressure_sealevel;temperature;humidity
16016;BME280;8112;53.592;10.184;2023-05-23T00:00:44;101022.84;;;17.26;100.00
16016;BME280;8112;53.592;10.184;2023-05-23T00:05:48;101021.34;;;17.12;100.00
16016;BME280;8112;53.592;10.184;2023-05-23T00:10:50;101036.41;;;17.02;100.00
16016;BME280;8112;53.592;10.184;2023-05-23T00:15:52;101024.78;;;16.80;100.00
16016;BME280;8112;53.592;10.184;2023-05-23T00:20:55;101019.50;;;16.69;100.00
16016;BME280;8112;53.592;10.184;2023-05-23T00:25:58;101021.44;;;16.66;100.00
16016;BME280;8112;53.592;10.184;2023-05-23T00:31:00;101023.84;;;16.58;100.00
16016;BME280;8112;53.592;10.184;2023-05-23T00:36:03;101029.41;;;16.66;100.00
16016;BME280;8112;53.592;10.184;2023-05-23T00:41:05;101025.16;;;16.75;100.00
16016;BME280;8112;53.592;10.184;2023-05-23T00:46:07;101031.56;;;16.73;100.00
16016;BME280;8112;53.592;10.184;2023-05-23T00:51:12;101031.56;;;16.73;100.00
16016;BME280;8112;53.592;10.184;2023-05-23T00:56:14;101030.25;;;16.78;100.00
16016;BME280;8112;53.592;10.184;2023-05-23T01:01:15;101025.13;;;16.87;100.00
16016;BME280;8112;53.592;10.184;2023-05-23T01:06:20;101022.50;;;16.75;100.00
16016;BME280;8112;53.592;10.184;2023-05-23T01:11:25;101017.56;;;16.71;100.00
16016;BME280;8112;53.592;10.184;2023-05-23T01:16:33;101022.16;;;16.57;100.00
16016;BME280;8112;53.592;10.184;2023-05-23T01:21:39;100998.31;;;16.56;100.00
16016;BME280;8112;53.592;10.184;2023-05-23T01:26:54;100998.41;;;16.77;100.00
16016;BME280;8112;53.592;10.184;2023-05-23T01:32:06;100992.44;;;16.96;100.00
16016;BME280;8112;53.592;10.184;2023-05-23T01:37:11;100982.03;;;17.04;100.00
16016;BME280;8112;53.592;10.184;2023-05-23T01:42:14;100970.56;;;17.04;100.00
16016;BME280;8112;53.592;10.184;2023-05-23T01:47:17;100975.78;;;16.83;100.00
16016;BME280;8112;53.592;10.184;2023-05-23T01:52:20;100970.47;;;16.83;100.00
16016;BME280;8112;53.592;10.184;2023-05-23T01:57:23;100967.28;;;17.00;100.00
16016;BME280;8112;53.592;10.184;2023-05-23T02:02:27;100968.41;;;17.19;100.00
16016;BME280;8112;53.592;10.184;2023-05-23T02:07:29;100962.16;;;17.08;100.00
16016;BME280;8112;53.592;10.184;2023-05-23T02:12:31;100960.22;;;17.10;100.00
16016;BME280;8112;53.592;10.184;2023-05-23T02:17:34;100959.50;;;17.08;100.00
16016;BME280;8112;53.592;10.184;2023-05-23T02:22:37;100960.81;;;17.14;100.00
16016;BME280;8112;53.592;10.184;2023-05-23T02:27:38;100970.72;;;17.23;100.00
16016;BME280;8112;53.592;10.184;2023-05-23T02:32:41;100967.13;;;17.34;100.00
16016;BME280;8112;53.592;10.184;2023-05-23T02:37:43;100956.91;;;17.18;100.00
16016;BME280;8112;53.592;10.184;2023-05-23T02:42:47;100960.44;;;16.75;100.00
16016;BME280;8112;53.592;10.184;2023-05-23T02:47:51;100969.31;;;16.64;100.00
16016;BME280;8112;53.592;10.184;2023-05-23T02:52:53;100969.94;;;16.56;100.00
16016;BME280;8112;53.592;10.184;2023-05-23T02:57:55;100976.25;;;16.32;100.00
16016;BME280;8112;53.592;10.184;2023-05-23T03:02:59;100989.19;;;16.14;100.00
16016;BME280;8112;53.592;10.184;2023-05-23T03:08:02;100994.63;;;16.01;100.00
16016;BME280;8112;53.592;10.184;2023-05-23T03:13:04;101002.34;;;16.04;100.00
16016;BME280;8112;53.592;10.184;2023-05-23T03:18:07;101011.66;;;15.99;100.00
16016;BME280;8112;53.592;10.184;2023-05-23T03:23:09;101008.69;;;15.79;100.00
16016;BME280;8112;53.592;10.184;2023-05-23T03:28:11;101019.44;;;15.77;100.00
16016;BME280;8112;53.592;10.184;2023-05-23T03:33:14;101007.72;;;15.80;100.00
16016;BME280;8112;53.592;10.184;2023-05-23T03:38:22;101014.38;;;15.74;100.00
16016;BME280;8112;53.592;10.184;2023-05-23T03:44:04;101012.94;;;15.81;100.00
16016;BME280;8112;53.592;10.184;2023-05-23T03:49:07;101017.03;;;15.74;100.00
16016;BME280;8112;53.592;10.184;2023-05-23T03:54:10;101010.38;;;15.68;100.00
16016;BME280;8112;53.592;10.184;2023-05-23T03:59:12;101014.59;;;15.71;100.00
16016;BME280;8112;53.592;10.184;2023-05-23T04:04:15;101014.25;;;15.76;100.00
16016;BME280;8112;53.592;10.184;2023-05-23T04:09:19;101002.50;;;15.67;100.00
16016;BME280;8112;53.592;10.184;2023-05-23T04:14:28;100998.84;;;15.45;100.00
16016;BME280;8112;53.592;10.184;2023-05-23T04:19:33;101010.69;;;15.52;100.00
16016;BME280;8112;53.592;10.184;2023-05-23T04:24:34;101006.00;;;15.56;100.00
16016;BME280;8112;53.592;10.184;2023-05-23T04:29:36;100998.59;;;15.48;100.00
16016;BME280;8112;53.592;10.184;2023-05-23T04:34:40;101000.44;;;15.48;100.00
16016;BME280;8112;53.592;10.184;2023-05-23T04:39:43;101009.69;;;15.42;100.00
16016;BME280;8112;53.592;10.184;2023-05-23T04:44:59;101011.88;;;15.48;100.00
16016;BME280;8112;53.592;10.184;2023-05-23T04:50:32;101015.09;;;15.29;100.00
16016;BME280;8112;53.592;10.184;2023-05-23T04:55:36;101015.69;;;15.08;100.00
16016;BME280;8112;53.592;10.184;2023-05-23T05:00:44;101015.88;;;14.94;100.00
16016;BME280;8112;53.592;10.184;2023-05-23T05:05:52;101020.78;;;14.87;100.00
16016;BME280;8112;53.592;10.184;2023-05-23T05:10:54;101024.03;;;14.91;100.00
16016;BME280;8112;53.592;10.184;2023-05-23T05:15:57;101027.47;;;14.80;100.00
16016;BME280;8112;53.592;10.184;2023-05-23T05:21:01;101031.06;;;14.92;100.00
16016;BME280;8112;53.592;10.184;2023-05-23T05:26:03;101031.81;;;14.94;100.00
16016;BME280;8112;53.592;10.184;2023-05-23T05:31:05;101032.63;;;14.94;100.00
16016;BME280;8112;53.592;10.184;2023-05-23T05:36:11;101038.56;;;14.98;100.00
16016;BME280;8112;53.592;10.184;2023-05-23T05:41:14;101045.13;;;15.05;100.00
16016;BME280;8112;53.592;10.184;2023-05-23T05:46:20;101047.94;;;15.15;100.00
16016;BME280;8112;53.592;10.184;2023-05-23T05:51:25;101041.28;;;15.09;100.00
16016;BME280;8112;53.592;10.184;2023-05-23T05:56:27;101046.88;;;14.93;100.00
16016;BME280;8112;53.592;10.184;2023-05-23T06:01:28;101049.19;;;14.98;100.00
16016;BME280;8112;53.592;10.184;2023-05-23T06:06:32;101055.34;;;14.99;100.00
16016;BME280;8112;53.592;10.184;2023-05-23T06:11:34;101063.16;;;15.13;100.00
16016;BME280;8112;53.592;10.184;2023-05-23T06:16:38;101061.75;;;15.20;100.00
16016;BME280;8112;53.592;10.184;2023-05-23T06:21:41;101071.66;;;15.05;100.00
16016;BME280;8112;53.592;10.184;2023-05-23T06:26:44;101071.78;;;15.04;100.00
16016;BME280;8112;53.592;10.184;2023-05-23T06:31:46;101074.69;;;15.01;100.00
16016;BME280;8112;53.592;10.184;2023-05-23T06:36:49;101073.41;;;14.93;100.00
16016;BME280;8112;53.592;10.184;2023-05-23T06:41:51;101078.97;;;14.77;100.00
16016;BME280;8112;53.592;10.184;2023-05-23T06:46:53;101091.06;;;14.68;100.00
16016;BME280;8112;53.592;10.184;2023-05-23T06:51:58;101093.81;;;14.67;100.00
16016;BME280;8112;53.592;10.184;2023-05-23T06:57:00;101103.38;;;14.70;100.00
16016;BME280;8112;53.592;10.184;2023-05-23T07:02:03;101099.75;;;14.84;100.00
16016;BME280;8112;53.592;10.184;2023-05-23T07:07:06;101115.66;;;14.84;100.00
16016;BME280;8112;53.592;10.184;2023-05-23T07:12:08;101118.41;;;14.69;100.00
16016;BME280;8112;53.592;10.184;2023-05-23T07:17:13;101122.16;;;14.66;100.00
16016;BME280;8112;53.592;10.184;2023-05-23T07:22:16;101132.63;;;14.68;100.00
16016;BME280;8112;53.592;10.184;2023-05-23T07:27:18;101133.38;;;14.70;100.00
16016;BME280;8112;53.592;10.184;2023-05-23T07:32:20;101135.09;;;14.71;100.00
16016;BME280;8112;53.592;10.184;2023-05-23T07:37:23;101139.44;;;14.85;100.00
16016;BME280;8112;53.592;10.184;2023-05-23T07:42:26;101145.19;;;14.79;100.00
16016;BME280;8112;53.592;10.184;2023-05-23T07:47:28;101147.72;;;14.80;100.00
16016;BME280;8112;53.592;10.184;2023-05-23T07:52:31;101145.16;;;14.66;100.00
16016;BME280;8112;53.592;10.184;2023-05-23T07:57:37;101152.50;;;14.88;100.00
16016;BME280;8112;53.592;10.184;2023-05-23T08:02:38;101148.13;;;14.61;100.00
16016;BME280;8112;53.592;10.184;2023-05-23T08:07:42;101145.38;;;15.02;100.00
16016;BME280;8112;53.592;10.184;2023-05-23T08:12:44;101146.56;;;15.22;100.00
16016;BME280;8112;53.592;10.184;2023-05-23T08:17:49;101140.19;;;15.24;100.00
16016;BME280;8112;53.592;10.184;2023-05-23T08:22:53;101128.47;;;15.40;100.00
16016;BME280;8112;53.592;10.184;2023-05-23T08:27:58;101125.63;;;15.54;100.00
16016;BME280;8112;53.592;10.184;2023-05-23T08:33:15;101119.00;;;15.60;100.00
16016;BME280;8112;53.592;10.184;2023-05-23T08:38:21;101114.53;;;15.85;100.00
16016;BME280;8112;53.592;10.184;2023-05-23T08:43:39;101120.63;;;15.99;100.00
16016;BME280;8112;53.592;10.184;2023-05-23T08:48:48;101131.63;;;15.45;100.00
16016;BME280;8112;53.592;10.184;2023-05-23T08:53:53;101153.53;;;15.36;100.00
16016;BME280;8112;53.592;10.184;2023-05-23T08:58:58;101148.53;;;15.68;100.00
16016;BME280;8112;53.592;10.184;2023-05-23T09:04:01;101137.59;;;15.85;100.00
16016;BME280;8112;53.592;10.184;2023-05-23T09:09:20;101151.75;;;15.61;100.00
16016;BME280;8112;53.592;10.184;2023-05-23T09:14:22;101155.47;;;15.58;100.00
16016;BME280;8112;53.592;10.184;2023-05-23T09:19:29;101158.47;;;15.16;100.00
16016;BME280;8112;53.592;10.184;2023-05-23T09:24:41;101187.97;;;14.74;100.00
16016;BME280;8112;53.592;10.184;2023-05-23T09:29:44;101197.97;;;14.30;100.00
16016;BME280;8112;53.592;10.184;2023-05-23T09:34:57;101218.63;;;13.85;100.00
16016;BME280;8112;53.592;10.184;2023-05-23T09:40:06;101241.78;;;13.53;100.00
16016;BME280;8112;53.592;10.184;2023-05-23T09:45:10;101250.09;;;13.33;100.00
16016;BME280;8112;53.592;10.184;2023-05-23T09:50:12;101268.25;;;13.10;100.00
16016;BME280;8112;53.592;10.184;2023-05-23T09:55:15;101277.31;;;12.91;100.00
16016;BME280;8112;53.592;10.184;2023-05-23T10:00:18;101295.25;;;12.86;100.00
16016;BME280;8112;53.592;10.184;2023-05-23T10:05:30;101313.97;;;12.83;100.00
16016;BME280;8112;53.592;10.184;2023-05-23T10:11:23;101319.34;;;12.81;100.00
16016;BME280;8112;53.592;10.184;2023-05-23T10:16:38;101323.03;;;12.93;100.00
16016;BME280;8112;53.592;10.184;2023-05-23T10:21:43;101334.06;;;12.86;100.00
16016;BME280;8112;53.592;10.184;2023-05-23T10:26:51;101343.78;;;12.71;100.00
16016;BME280;8112;53.592;10.184;2023-05-23T10:31:53;101354.88;;;12.61;100.00
16016;BME280;8112;53.592;10.184;2023-05-23T10:36:59;101363.94;;;12.57;100.00
16016;BME280;8112;53.592;10.184;2023-05-23T10:42:10;101367.94;;;12.48;100.00
16016;BME280;8112;53.592;10.184;2023-05-23T10:47:25;101372.03;;;12.54;100.00
16016;BME280;8112;53.592;10.184;2023-05-23T10:52:38;101382.13;;;12.78;100.00
16016;BME280;8112;53.592;10.184;2023-05-23T10:57:41;101372.16;;;12.83;100.00
16016;BME280;8112;53.592;10.184;2023-05-23T11:02:52;101377.75;;;12.93;100.00
16016;BME280;8112;53.592;10.184;2023-05-23T11:08:09;101358.00;;;12.98;100.00
16016;BME280;8112;53.592;10.184;2023-05-23T11:13:14;101364.75;;;13.19;100.00
16016;BME280;8112;53.592;10.184;2023-05-23T11:18:21;101361.56;;;13.28;100.00
16016;BME280;8112;53.592;10.184;2023-05-23T11:23:23;101354.41;;;13.45;100.00
16016;BME280;8112;53.592;10.184;2023-05-23T11:28:26;101347.06;;;13.64;100.00
16016;BME280;8112;53.592;10.184;2023-05-23T11:33:29;101342.66;;;13.78;100.00
16016;BME280;8112;53.592;10.184;2023-05-23T11:38:31;101334.88;;;14.59;100.00
16016;BME280;8112;53.592;10.184;2023-05-23T11:43:34;101334.72;;;15.52;100.00
16016;BME280;8112;53.592;10.184;2023-05-23T11:48:36;101324.22;;;16.01;100.00
16016;BME280;8112;53.592;10.184;2023-05-23T11:53:38;101308.00;;;15.30;100.00
16016;BME280;8112;53.592;10.184;2023-05-23T11:58:41;101324.03;;;15.41;100.00
16016;BME280;8112;53.592;10.184;2023-05-23T12:03:45;101302.13;;;15.88;100.00
16016;BME280;8112;53.592;10.184;2023-05-23T12:08:47;101295.31;;;16.21;100.00
16016;BME280;8112;53.592;10.184;2023-05-23T12:13:51;101306.59;;;15.87;100.00
16016;BME280;8112;53.592;10.184;2023-05-23T12:18:53;101322.63;;;15.48;100.00
16016;BME280;8112;53.592;10.184;2023-05-23T12:23:55;101330.59;;;15.48;100.00
16016;BME280;8112;53.592;10.184;2023-05-23T12:28:58;101324.06;;;15.78;100.00
16016;BME280;8112;53.592;10.184;2023-05-23T12:34:00;101326.19;;;16.23;100.00
16016;BME280;8112;53.592;10.184;2023-05-23T12:39:03;101331.94;;;16.42;100.00
16016;BME280;8112;53.592;10.184;2023-05-23T12:44:06;101323.22;;;16.39;100.00
16016;BME280;8112;53.592;10.184;2023-05-23T12:49:08;101338.59;;;16.23;100.00
16016;BME280;8112;53.592;10.184;2023-05-23T12:54:10;101333.78;;;16.88;100.00
16016;BME280;8112;53.592;10.184;2023-05-23T12:59:13;101334.41;;;16.56;100.00
16016;BME280;8112;53.592;10.184;2023-05-23T13:04:15;101344.31;;;16.54;100.00
16016;BME280;8112;53.592;10.184;2023-05-23T13:09:16;101343.97;;;16.59;100.00
16016;BME280;8112;53.592;10.184;2023-05-23T13:14:19;101345.44;;;16.99;100.00
16016;BME280;8112;53.592;10.184;2023-05-23T13:19:21;101354.00;;;16.55;100.00
16016;BME280;8112;53.592;10.184;2023-05-23T13:24:23;101367.13;;;16.21;100.00
16016;BME280;8112;53.592;10.184;2023-05-23T13:29:26;101379.28;;;16.12;100.00
16016;BME280;8112;53.592;10.184;2023-05-23T13:34:28;101381.72;;;15.39;100.00
16016;BME280;8112;53.592;10.184;2023-05-23T13:39:29;101381.38;;;15.05;100.00
16016;BME280;8112;53.592;10.184;2023-05-23T13:44:32;101392.44;;;15.24;100.00
16016;BME280;8112;53.592;10.184;2023-05-23T13:49:34;101390.06;;;15.07;100.00
16016;BME280;8112;53.592;10.184;2023-05-23T13:54:36;101392.97;;;15.56;100.00
16016;BME280;8112;53.592;10.184;2023-05-23T13:59:39;101394.03;;;15.92;100.00
16016;BME280;8112;53.592;10.184;2023-05-23T14:04:40;101399.16;;;16.44;100.00
16016;BME280;8112;53.592;10.184;2023-05-23T14:09:42;101394.72;;;15.81;100.00
16016;BME280;8112;53.592;10.184;2023-05-23T14:14:45;101419.81;;;15.77;100.00
16016;BME280;8112;53.592;10.184;2023-05-23T14:19:47;101399.44;;;15.77;100.00
16016;BME280;8112;53.592;10.184;2023-05-23T14:24:48;101422.25;;;16.43;100.00
16016;BME280;8112;53.592;10.184;2023-05-23T14:29:51;101419.09;;;15.75;100.00
16016;BME280;8112;53.592;10.184;2023-05-23T14:34:53;101416.53;;;15.47;100.00
16016;BME280;8112;53.592;10.184;2023-05-23T14:39:55;101417.06;;;15.52;100.00
16016;BME280;8112;53.592;10.184;2023-05-23T14:44:58;101440.38;;;15.49;100.00
16016;BME280;8112;53.592;10.184;2023-05-23T14:50:00;101436.50;;;15.27;100.00
16016;BME280;8112;53.592;10.184;2023-05-23T14:55:02;101437.34;;;15.28;100.00
16016;BME280;8112;53.592;10.184;2023-05-23T15:00:06;101441.09;;;14.98;100.00
16016;BME280;8112;53.592;10.184;2023-05-23T15:05:08;101458.03;;;14.82;100.00
16016;BME280;8112;53.592;10.184;2023-05-23T15:10:10;101451.34;;;15.17;100.00
16016;BME280;8112;53.592;10.184;2023-05-23T15:15:14;101458.69;;;15.26;100.00
16016;BME280;8112;53.592;10.184;2023-05-23T15:20:22;101463.84;;;15.02;100.00
16016;BME280;8112;53.592;10.184;2023-05-23T15:25:23;101453.84;;;14.50;100.00
16016;BME280;8112;53.592;10.184;2023-05-23T15:30:27;101456.84;;;15.01;100.00
16016;BME280;8112;53.592;10.184;2023-05-23T15:35:29;101457.56;;;15.43;100.00
16016;BME280;8112;53.592;10.184;2023-05-23T15:40:30;101466.84;;;15.10;100.00
16016;BME280;8112;53.592;10.184;2023-05-23T15:45:33;101466.31;;;15.05;100.00
16016;BME280;8112;53.592;10.184;2023-05-23T15:50:35;101465.13;;;14.54;100.00
16016;BME280;8112;53.592;10.184;2023-05-23T15:55:37;101460.78;;;14.38;100.00
16016;BME280;8112;53.592;10.184;2023-05-23T16:00:40;101477.94;;;13.75;100.00
16016;BME280;8112;53.592;10.184;2023-05-23T16:05:42;101479.09;;;13.40;100.00
16016;BME280;8112;53.592;10.184;2023-05-23T16:10:44;101483.16;;;13.62;100.00
16016;BME280;8112;53.592;10.184;2023-05-23T16:15:47;101485.94;;;13.44;100.00
16016;BME280;8112;53.592;10.184;2023-05-23T16:20:49;101484.94;;;13.61;100.00
16016;BME280;8112;53.592;10.184;2023-05-23T16:25:50;101477.28;;;13.71;100.00
16016;BME280;8112;53.592;10.184;2023-05-23T16:30:53;101474.63;;;13.71;100.00
16016;BME280;8112;53.592;10.184;2023-05-23T16:35:56;101486.56;;;13.64;100.00
16016;BME280;8112;53.592;10.184;2023-05-23T16:40:57;101483.66;;;13.38;100.00
16016;BME280;8112;53.592;10.184;2023-05-23T16:46:00;101484.41;;;13.40;100.00
16016;BME280;8112;53.592;10.184;2023-05-23T16:51:02;101476.81;;;13.34;100.00
16016;BME280;8112;53.592;10.184;2023-05-23T16:56:04;101483.91;;;13.64;100.00
16016;BME280;8112;53.592;10.184;2023-05-23T17:01:07;101489.59;;;14.01;100.00
16016;BME280;8112;53.592;10.184;2023-05-23T17:06:09;101489.69;;;14.14;100.00
16016;BME280;8112;53.592;10.184;2023-05-23T17:11:11;101480.97;;;14.27;100.00
16016;BME280;8112;53.592;10.184;2023-05-23T17:16:14;101484.19;;;14.46;100.00
16016;BME280;8112;53.592;10.184;2023-05-23T17:21:17;101479.75;;;14.32;100.00
16016;BME280;8112;53.592;10.184;2023-05-23T17:26:19;101497.56;;;14.16;100.00
16016;BME280;8112;53.592;10.184;2023-05-23T17:31:22;101499.09;;;13.46;100.00
16016;BME280;8112;53.592;10.184;2023-05-23T17:36:24;101512.56;;;13.41;100.00
16016;BME280;8112;53.592;10.184;2023-05-23T17:41:25;101510.88;;;12.77;100.00
16016;BME280;8112;53.592;10.184;2023-05-23T17:46:28;101525.97;;;12.59;100.00
16016;BME280;8112;53.592;10.184;2023-05-23T17:51:30;101520.66;;;13.23;100.00
16016;BME280;8112;53.592;10.184;2023-05-23T17:56:32;101525.94;;;13.07;100.00
16016;BME280;8112;53.592;10.184;2023-05-23T18:01:36;101516.22;;;13.08;100.00
16016;BME280;8112;53.592;10.184;2023-05-23T18:06:37;101531.59;;;12.53;100.00
16016;BME280;8112;53.592;10.184;2023-05-23T18:11:39;101546.00;;;12.31;100.00
16016;BME280;8112;53.592;10.184;2023-05-23T18:16:43;101538.56;;;11.87;100.00
16016;BME280;8112;53.592;10.184;2023-05-23T18:21:44;101546.59;;;11.85;100.00
16016;BME280;8112;53.592;10.184;2023-05-23T18:26:46;101547.91;;;11.59;100.00
16016;BME280;8112;53.592;10.184;2023-05-23T18:31:49;101561.50;;;11.51;100.00
16016;BME280;8112;53.592;10.184;2023-05-23T18:36:51;101548.50;;;11.46;100.00
16016;BME280;8112;53.592;10.184;2023-05-23T18:41:53;101553.63;;;11.49;100.00
16016;BME280;8112;53.592;10.184;2023-05-23T18:46:56;101555.44;;;11.49;100.00
16016;BME280;8112;53.592;10.184;2023-05-23T18:51:57;101557.75;;;11.37;100.00
16016;BME280;8112;53.592;10.184;2023-05-23T18:56:59;101560.91;;;11.26;100.00
16016;BME280;8112;53.592;10.184;2023-05-23T19:02:05;101566.50;;;11.20;100.00
16016;BME280;8112;53.592;10.184;2023-05-23T19:07:07;101567.91;;;11.27;100.00
16016;BME280;8112;53.592;10.184;2023-05-23T19:12:09;101570.75;;;11.23;100.00
16016;BME280;8112;53.592;10.184;2023-05-23T19:17:12;101563.84;;;11.20;100.00
16016;BME280;8112;53.592;10.184;2023-05-23T19:22:14;101567.59;;;11.16;100.00
16016;BME280;8112;53.592;10.184;2023-05-23T19:27:16;101570.50;;;11.10;100.00
16016;BME280;8112;53.592;10.184;2023-05-23T19:32:19;101579.19;;;11.12;100.00
16016;BME280;8112;53.592;10.184;2023-05-23T19:37:21;101580.78;;;10.97;100.00
16016;BME280;8112;53.592;10.184;2023-05-23T19:42:23;101580.22;;;10.90;100.00
16016;BME280;8112;53.592;10.184;2023-05-23T19:47:26;101589.03;;;10.89;100.00
16016;BME280;8112;53.592;10.184;2023-05-23T19:52:27;101596.47;;;10.81;100.00
16016;BME280;8112;53.592;10.184;2023-05-23T19:57:29;101601.59;;;10.84;100.00
16016;BME280;8112;53.592;10.184;2023-05-23T20:02:32;101597.31;;;10.81;100.00
16016;BME280;8112;53.592;10.184;2023-05-23T20:07:34;101596.53;;;10.79;100.00
16016;BME280;8112;53.592;10.184;2023-05-23T20:12:36;101608.34;;;10.71;100.00
16016;BME280;8112;53.592;10.184;2023-05-23T20:17:40;101617.13;;;10.71;100.00
16016;BME280;8112;53.592;10.184;2023-05-23T20:22:41;101612.69;;;10.72;100.00
16016;BME280;8112;53.592;10.184;2023-05-23T20:27:43;101623.09;;;10.75;100.00
16016;BME280;8112;53.592;10.184;2023-05-23T20:32:46;101613.63;;;10.71;100.00
16016;BME280;8112;53.592;10.184;2023-05-23T20:37:52;101621.03;;;10.62;100.00
16016;BME280;8112;53.592;10.184;2023-05-23T20:42:54;101620.91;;;10.65;100.00
16016;BME280;8112;53.592;10.184;2023-05-23T20:47:59;101621.03;;;10.62;100.00
16016;BME280;8112;53.592;10.184;2023-05-23T20:53:01;101622.50;;;10.68;100.00
16016;BME280;8112;53.592;10.184;2023-05-23T20:58:02;101616.38;;;10.48;100.00
16016;BME280;8112;53.592;10.184;2023-05-23T21:03:06;101615.38;;;10.51;100.00
16016;BME280;8112;53.592;10.184;2023-05-23T21:08:07;101612.09;;;10.46;100.00
16016;BME280;8112;53.592;10.184;2023-05-23T21:13:09;101622.50;;;10.49;100.00
16016;BME280;8112;53.592;10.184;2023-05-23T21:18:12;101623.69;;;10.41;100.00
16016;BME280;8112;53.592;10.184;2023-05-23T21:23:14;101621.09;;;10.40;100.00
16016;BME280;8112;53.592;10.184;2023-05-23T21:28:16;101641.88;;;10.27;100.00
16016;BME280;8112;53.592;10.184;2023-05-23T21:33:19;101628.56;;;10.30;100.00
16016;BME280;8112;53.592;10.184;2023-05-23T21:38:21;101635.81;;;10.25;100.00
16016;BME280;8112;53.592;10.184;2023-05-23T21:43:24;101631.66;;;10.19;100.00
16016;BME280;8112;53.592;10.184;2023-05-23T21:48:27;101635.91;;;10.22;100.00
16016;BME280;8112;53.592;10.184;2023-05-23T21:53:28;101635.22;;;10.18;100.00
16016;BME280;8112;53.592;10.184;2023-05-23T21:58:30;101636.47;;;10.09;100.00
16016;BME280;8112;53.592;10.184;2023-05-23T22:03:33;101625.66;;;10.16;100.00
16016;BME280;8112;53.592;10.184;2023-05-23T22:08:35;101630.78;;;10.19;100.00
16016;BME280;8112;53.592;10.184;2023-05-23T22:13:38;101633.75;;;10.11;100.00
16016;BME280;8112;53.592;10.184;2023-05-23T22:18:42;101634.75;;;10.08;100.00
16016;BME280;8112;53.592;10.184;2023-05-23T22:23:45;101632.50;;;10.20;100.00
16016;BME280;8112;53.592;10.184;2023-05-23T22:28:47;101633.88;;;10.08;100.00
16016;BME280;8112;53.592;10.184;2023-05-23T22:33:50;101631.84;;;10.15;100.00
16016;BME280;8112;53.592;10.184;2023-05-23T22:38:51;101625.66;;;10.16;100.00
16016;BME280;8112;53.592;10.184;2023-05-23T22:43:53;101632.34;;;10.23;100.00
16016;BME280;8112;53.592;10.184;2023-05-23T22:48:56;101627.56;;;10.12;100.00
16016;BME280;8112;53.592;10.184;2023-05-23T22:53:59;101625.78;;;10.12;100.00
16016;BME280;8112;53.592;10.184;2023-05-23T22:59:01;101629.25;;;10.13;100.00
16016;BME280;8112;53.592;10.184;2023-05-23T23:04:04;101622.59;;;10.04;100.00
16016;BME280;8112;53.592;10.184;2023-05-23T23:09:06;101635.25;;;10.17;100.00
16016;BME280;8112;53.592;10.184;2023-05-23T23:14:07;101634.19;;;10.21;100.00
16016;BME280;8112;53.592;10.184;2023-05-23T23:19:11;101636.19;;;10.16;100.00
16016;BME280;8112;53.592;10.184;2023-05-23T23:24:12;101639.94;;;10.10;100.00
16016;BME280;8112;53.592;10.184;2023-05-23T23:29:14;101632.91;;;10.10;100.00
16016;BME280;8112;53.592;10.184;2023-05-23T23:34:17;101623.41;;;10.06;100.00
16016;BME280;8112;53.592;10.184;2023-05-23T23:39:19;101635.78;;;10.04;100.00
16016;BME280;8112;53.592;10.184;2023-05-23T23:44:20;101622.59;;;10.04;100.00
16016;BME280;8112;53.592;10.184;2023-05-23T23:49:23;101633.28;;;10.01;100.00
16016;BME280;8112;53.592;10.184;2023-05-23T23:54:25;101623.94;;;9.94;100.00
16016;BME280;8112;53.592;10.184;2023-05-23T23:59:27;101624.88;;;10.13;100.00
